createdAt,value
2022-11-29T00:01:38.534Z,12.05
2022-11-29T00:04:09.938Z,11.20
2022-11-29T00:06:37.841Z,11.75
2022-11-29T00:09:09.894Z,12.05
2022-11-29T00:11:56.717Z,12.00
2022-11-29T00:14:28.526Z,11.85
2022-11-29T00:16:59.296Z,12.40
2022-11-29T00:19:27.409Z,12.50
2022-11-29T00:21:56.004Z,11.18
2022-11-29T00:24:24.388Z,12.63
2022-11-29T00:26:52.936Z,11.32
2022-11-29T00:29:20.966Z,11.73
2022-11-29T00:31:50.217Z,12.27
2022-11-29T00:34:18.186Z,11.52
2022-11-29T00:36:46.457Z,11.98
2022-11-29T00:39:16.260Z,11.75
2022-11-29T00:41:44.513Z,10.57
2022-11-29T00:44:19.664Z,10.95
2022-11-29T00:46:48.258Z,11.25
2022-11-29T00:49:17.822Z,10.57
2022-11-29T00:51:46.241Z,11.70
2022-11-29T00:54:14.259Z,10.23
2022-11-29T00:56:42.272Z,10.93
2022-11-29T00:59:10.966Z,10.73
2022-11-29T01:01:38.943Z,10.80
2022-11-29T01:04:07.166Z,9.63
2022-11-29T01:06:38.728Z,11.30
2022-11-29T01:09:07.163Z,11.52
2022-11-29T01:11:35.820Z,10.95
2022-11-29T01:14:04.750Z,14.57
2022-11-29T01:16:34.532Z,21.23
2022-11-29T01:19:02.635Z,15.02
2022-11-29T01:21:30.966Z,11.98
2022-11-29T01:24:01.616Z,11.18
2022-11-29T01:26:31.741Z,10.23
2022-11-29T01:29:00.869Z,11.45
2022-11-29T01:31:30.638Z,10.68
2022-11-29T01:34:00.529Z,11.63
2022-11-29T01:36:30.222Z,10.85
2022-11-29T01:39:02.252Z,10.55
2022-11-29T01:41:31.879Z,11.48
2022-11-29T01:44:03.759Z,13.40
2022-11-29T01:46:34.001Z,11.50
2022-11-29T01:49:05.571Z,11.13
2022-11-29T01:51:35.998Z,10.95
2022-11-29T01:54:06.416Z,9.90
2022-11-29T01:56:35.822Z,10.55
2022-11-29T01:59:07.932Z,11.77
2022-11-29T02:01:37.200Z,11.20
2022-11-29T02:04:05.471Z,11.07
2022-11-29T02:06:34.171Z,9.55
2022-11-29T02:09:02.375Z,10.13
2022-11-29T02:12:05.849Z,11.40
2022-11-29T02:15:00.148Z,11.52
2022-11-29T02:17:34.435Z,12.07
2022-11-29T02:20:44.315Z,11.20
2022-11-29T02:23:34.358Z,11.02
2022-11-29T02:26:17.193Z,10.82
2022-11-29T02:29:42.133Z,11.02
2022-11-29T02:33:00.935Z,10.88
2022-11-29T02:35:45.045Z,11.10
2022-11-29T02:38:37.067Z,11.68
2022-11-29T02:41:31.259Z,10.95
2022-11-29T02:44:24.426Z,11.00
2022-11-29T02:47:09.305Z,12.07
2022-11-29T02:49:59.479Z,11.43
2022-11-29T02:52:37.684Z,10.07
2022-11-29T02:55:11.770Z,10.38
2022-11-29T02:57:44.582Z,10.57
2022-11-29T03:00:17.521Z,11.35
2022-11-29T03:02:54.481Z,10.07
2022-11-29T03:05:31.298Z,11.10
2022-11-29T03:08:08.919Z,9.88
2022-11-29T03:10:51.503Z,11.32
2022-11-29T03:13:26.187Z,11.30
2022-11-29T03:16:01.084Z,10.63
2022-11-29T03:18:35.797Z,10.88
2022-11-29T03:21:15.294Z,9.57
2022-11-29T03:23:49.639Z,9.90
2022-11-29T03:26:22.837Z,9.52
2022-11-29T03:28:58.665Z,10.18
2022-11-29T03:31:33.533Z,11.02
2022-11-29T03:34:12.370Z,10.32
2022-11-29T03:36:49.054Z,9.85
2022-11-29T03:39:24.235Z,11.00
2022-11-29T03:42:00.134Z,10.65
2022-11-29T03:44:32.559Z,9.43
2022-11-29T03:47:06.037Z,10.38
2022-11-29T03:49:40.485Z,10.90
2022-11-29T03:52:18.131Z,10.10
2022-11-29T03:54:58.956Z,10.48
2022-11-29T03:57:36.291Z,10.20
2022-11-29T04:00:08.616Z,9.93
2022-11-29T04:03:13.134Z,10.18
2022-11-29T04:06:07.908Z,10.52
2022-11-29T04:09:00.366Z,10.77
2022-11-29T04:12:05.925Z,9.60
2022-11-29T04:15:15.209Z,9.07
2022-11-29T04:18:16.000Z,10.18
2022-11-29T04:21:14.359Z,9.27
2022-11-29T04:24:00.352Z,9.57
2022-11-29T04:27:24.826Z,9.95
2022-11-29T04:30:07.338Z,9.95
2022-11-29T04:33:14.202Z,8.95
2022-11-29T04:36:06.799Z,9.30
2022-11-29T04:39:04.334Z,9.32
2022-11-29T04:41:54.483Z,10.05
2022-11-29T04:44:43.136Z,9.25
2022-11-29T04:47:35.544Z,9.38
2022-11-29T04:50:26.679Z,9.30
2022-11-29T04:53:25.530Z,9.23
2022-11-29T04:56:02.992Z,9.75
2022-11-29T04:58:38.995Z,8.77
2022-11-29T05:01:16.676Z,8.95
2022-11-29T05:03:56.909Z,8.88
2022-11-29T05:06:34.542Z,9.13
2022-11-29T05:09:13.479Z,9.10
2022-11-29T05:11:55.181Z,10.00
2022-11-29T05:14:32.437Z,9.02
2022-11-29T05:17:22.821Z,10.30
2022-11-29T05:20:02.442Z,10.13
2022-11-29T05:22:37.228Z,9.80
2022-11-29T05:25:31.828Z,9.20
2022-11-29T05:28:10.027Z,8.73
2022-11-29T05:31:03.638Z,9.73
2022-11-29T05:33:50.096Z,10.02
2022-11-29T05:36:29.895Z,9.27
2022-11-29T05:39:11.177Z,9.68
2022-11-29T05:41:56.938Z,9.25
2022-11-29T05:47:03.088Z,8.80
2022-11-29T05:49:39.933Z,9.30
2022-11-29T05:52:24.978Z,9.38
2022-11-29T05:55:08.427Z,9.77
2022-11-29T05:57:43.441Z,8.95
2022-11-29T06:00:15.105Z,8.80
2022-11-29T06:02:50.267Z,8.77
2022-11-29T06:05:27.474Z,8.73
2022-11-29T06:08:04.454Z,9.00
2022-11-29T06:10:36.782Z,9.02
2022-11-29T06:13:18.805Z,9.55
2022-11-29T06:16:09.846Z,9.00
2022-11-29T06:18:58.406Z,8.57
2022-11-29T06:21:37.407Z,9.23
2022-11-29T06:24:28.162Z,8.65
2022-11-29T06:27:10.701Z,9.40
2022-11-29T06:29:46.301Z,10.05
2022-11-29T06:32:25.678Z,8.75
2022-11-29T06:34:59.666Z,8.75
2022-11-29T06:37:34.815Z,8.80
2022-11-29T06:40:04.005Z,8.95
2022-11-29T06:42:31.893Z,8.52
2022-11-29T06:45:00.725Z,8.38
2022-11-29T06:47:32.638Z,9.77
2022-11-29T06:50:17.033Z,8.48
2022-11-29T06:52:54.604Z,8.60
2022-11-29T06:55:29.017Z,9.35
2022-11-29T06:58:06.196Z,9.17
2022-11-29T07:00:43.632Z,9.55
2022-11-29T07:03:34.574Z,10.02
2022-11-29T07:06:10.321Z,9.35
2022-11-29T07:08:41.966Z,8.85
2022-11-29T07:11:15.216Z,8.10
2022-11-29T07:13:44.246Z,9.23
2022-11-29T07:16:19.430Z,9.20
2022-11-29T07:18:56.195Z,11.23
2022-11-29T07:21:37.213Z,12.80
2022-11-29T07:24:17.988Z,10.57
2022-11-29T07:26:58.040Z,9.35
2022-11-29T07:29:37.359Z,8.38
2022-11-29T07:32:17.090Z,8.75
2022-11-29T07:34:56.774Z,8.98
2022-11-29T07:37:35.403Z,9.63
2022-11-29T07:40:12.301Z,8.60
2022-11-29T07:42:52.554Z,9.70
2022-11-29T07:45:27.520Z,8.30
2022-11-29T07:47:55.453Z,9.05
2022-11-29T07:50:23.954Z,8.77
2022-11-29T07:52:52.032Z,8.85
2022-11-29T07:55:24.283Z,9.30
2022-11-29T07:57:52.974Z,9.90
2022-11-29T08:00:21.862Z,9.82
2022-11-29T08:02:51.339Z,9.68
2022-11-29T08:05:19.649Z,9.65
2022-11-29T08:07:47.966Z,9.82
2022-11-29T08:10:17.584Z,10.23
2022-11-29T08:12:50.118Z,9.27
2022-11-29T08:15:18.675Z,10.90
2022-11-29T08:17:47.133Z,11.95
2022-11-29T08:20:16.550Z,14.95
2022-11-29T08:22:44.889Z,14.93
2022-11-29T08:25:13.641Z,13.95
2022-11-29T08:27:41.648Z,16.92
2022-11-29T08:30:11.435Z,21.83
2022-11-29T08:32:39.472Z,14.88
2022-11-29T08:35:07.495Z,13.07
2022-11-29T08:37:35.447Z,12.85
2022-11-29T08:40:04.608Z,18.75
2022-11-29T08:42:32.401Z,19.85
2022-11-29T08:45:00.185Z,14.68
2022-11-29T08:47:38.404Z,17.77
2022-11-29T08:50:12.230Z,15.98
2022-11-29T08:52:59.960Z,18.00
2022-11-29T08:55:32.436Z,18.33
2022-11-29T08:58:03.632Z,15.00
2022-11-29T09:00:32.612Z,15.52
2022-11-29T09:03:17.914Z,16.05
2022-11-29T09:05:45.875Z,16.88
2022-11-29T09:08:14.019Z,15.73
2022-11-29T09:10:44.816Z,19.98
2022-11-29T09:13:13.423Z,16.98
2022-11-29T09:15:42.621Z,15.43
2022-11-29T09:18:12.389Z,16.63
2022-11-29T09:20:43.725Z,15.15
2022-11-29T09:23:12.130Z,14.30
2022-11-29T09:25:40.284Z,13.57
2022-11-29T09:28:08.656Z,15.23
2022-11-29T09:30:38.296Z,15.38
2022-11-29T09:33:06.252Z,17.20
2022-11-29T09:35:36.157Z,15.15
2022-11-29T09:38:06.120Z,16.15
2022-11-29T09:40:39.801Z,13.15
2022-11-29T09:43:19.036Z,15.80
2022-11-29T09:45:51.283Z,15.50
2022-11-29T09:48:54.554Z,13.95
2022-11-29T09:51:32.521Z,14.65
2022-11-29T09:54:17.588Z,15.68
2022-11-29T09:56:48.440Z,14.60
2022-11-29T09:59:22.950Z,40.20
2022-11-29T10:01:56.421Z,32.33
2022-11-29T10:04:28.981Z,17.45
2022-11-29T10:07:03.780Z,15.55
2022-11-29T10:09:38.221Z,14.65
2022-11-29T10:12:15.414Z,27.27
2022-11-29T10:14:50.082Z,26.60
2022-11-29T10:17:31.637Z,17.67
2022-11-29T10:20:04.554Z,15.98
2022-11-29T10:22:42.894Z,49.13
2022-11-29T10:25:20.373Z,33.55
2022-11-29T10:27:48.275Z,18.05
2022-11-29T10:30:17.193Z,13.80
2022-11-29T10:32:51.647Z,20.08
2022-11-29T10:35:20.885Z,24.40
2022-11-29T10:38:22.746Z,20.55
2022-11-29T10:40:47.936Z,14.70
2022-11-29T10:43:16.540Z,12.25
2022-11-29T10:45:50.564Z,23.60
2022-11-29T10:48:21.025Z,13.45
2022-11-29T10:50:51.697Z,12.05
2022-11-29T10:53:25.259Z,13.40
2022-11-29T10:56:00.290Z,15.10
2022-11-29T10:58:30.117Z,12.00
2022-11-29T11:01:01.286Z,12.68
2022-11-29T11:03:39.890Z,11.02
2022-11-29T11:06:12.087Z,12.13
2022-11-29T11:08:44.950Z,13.20
2022-11-29T11:11:13.496Z,13.77
2022-11-29T11:13:41.944Z,13.90
2022-11-29T11:16:17.088Z,13.52
2022-11-29T11:18:46.135Z,12.70
2022-11-29T11:21:16.979Z,14.68
2022-11-29T11:23:54.734Z,38.03
2022-11-29T11:26:23.699Z,19.38
2022-11-29T11:28:56.141Z,15.60
2022-11-29T11:31:31.572Z,14.63
2022-11-29T11:36:47.123Z,29.27
2022-11-29T11:39:22.836Z,22.17
2022-11-29T11:42:10.100Z,14.95
2022-11-29T11:44:49.816Z,11.60
2022-11-29T11:47:21.238Z,9.88
2022-11-29T11:49:51.207Z,10.07
2022-11-29T11:52:23.665Z,11.13
2022-11-29T11:54:55.737Z,12.77
2022-11-29T11:57:26.626Z,16.33
2022-11-29T11:59:57.855Z,24.00
2022-11-29T12:02:30.002Z,16.67
2022-11-29T12:05:03.589Z,14.98
2022-11-29T12:08:06.601Z,11.90
2022-11-29T12:10:30.021Z,11.70
2022-11-29T12:13:00.440Z,15.93
2022-11-29T12:15:32.351Z,13.00
2022-11-29T12:18:07.113Z,11.45
2022-11-29T12:20:40.600Z,11.85
2022-11-29T12:23:24.537Z,16.50
2022-11-29T12:25:59.030Z,23.02
2022-11-29T12:28:29.976Z,25.20
2022-11-29T12:31:08.855Z,24.52
2022-11-29T12:33:49.500Z,14.98
2022-11-29T12:36:32.052Z,12.65
2022-11-29T12:39:40.577Z,13.40
2022-11-29T12:42:19.649Z,12.07
2022-11-29T12:44:57.449Z,12.40
2022-11-29T12:47:36.211Z,13.02
2022-11-29T12:50:25.557Z,11.75
2022-11-29T12:53:07.648Z,14.93
2022-11-29T12:55:49.419Z,14.55
2022-11-29T12:58:29.031Z,16.45
2022-11-29T13:01:10.516Z,15.15
2022-11-29T13:03:52.598Z,16.45
2022-11-29T13:06:29.199Z,17.00
2022-11-29T13:09:16.600Z,18.08
2022-11-29T13:11:54.700Z,13.68
2022-11-29T13:14:42.506Z,12.93
2022-11-29T13:17:23.078Z,12.45
2022-11-29T13:19:55.933Z,14.00
2022-11-29T13:22:32.687Z,12.50
2022-11-29T13:25:04.234Z,12.73
2022-11-29T13:27:36.139Z,11.73
2022-11-29T13:30:07.124Z,14.18
2022-11-29T13:32:37.368Z,13.57
2022-11-29T13:35:09.702Z,13.90
2022-11-29T13:37:43.689Z,12.88
2022-11-29T13:40:25.834Z,12.63
2022-11-29T13:43:02.365Z,13.32
2022-11-29T13:45:38.830Z,13.43
2022-11-29T13:48:27.764Z,16.77
2022-11-29T13:50:57.304Z,43.72
2022-11-29T13:53:27.013Z,31.20
2022-11-29T13:56:01.668Z,20.35
2022-11-29T13:58:38.539Z,45.75
2022-11-29T14:01:12.785Z,29.98
2022-11-29T14:03:42.809Z,21.08
2022-11-29T14:06:13.992Z,14.98
2022-11-29T14:09:17.333Z,14.70
2022-11-29T14:11:44.503Z,15.25
2022-11-29T14:14:23.898Z,14.40
2022-11-29T14:16:57.085Z,14.68
2022-11-29T14:19:31.622Z,14.98
2022-11-29T14:22:31.667Z,18.45
2022-11-29T14:25:49.761Z,16.35
2022-11-29T14:28:30.235Z,14.52
2022-11-29T14:30:58.596Z,17.70
2022-11-29T14:34:03.575Z,18.38
2022-11-29T14:36:52.600Z,18.67
2022-11-29T14:39:31.505Z,18.65
2022-11-29T14:42:14.710Z,20.25
2022-11-29T14:44:51.478Z,19.10
2022-11-29T14:47:31.920Z,18.58
2022-11-29T14:50:06.952Z,20.52
2022-11-29T14:52:38.879Z,18.70
2022-11-29T14:55:29.117Z,18.17
2022-11-29T14:58:22.766Z,17.58
2022-11-29T15:01:11.074Z,19.33
2022-11-29T15:03:47.768Z,17.83
2022-11-29T15:06:25.669Z,18.58
2022-11-29T15:09:01.967Z,17.52
2022-11-29T15:11:53.027Z,19.17
2022-11-29T15:14:34.896Z,24.02
2022-11-29T15:17:20.813Z,23.42
2022-11-29T15:20:16.394Z,23.60
2022-11-29T15:22:49.476Z,19.48
2022-11-29T15:25:19.859Z,21.15
2022-11-29T15:27:54.857Z,23.63
2022-11-29T15:30:30.990Z,20.00
2022-11-29T15:33:01.096Z,19.45
2022-11-29T15:35:29.449Z,19.77
2022-11-29T15:37:58.728Z,34.28
2022-11-29T15:40:34.763Z,21.35
2022-11-29T15:43:15.110Z,18.83
2022-11-29T15:45:49.061Z,16.90
2022-11-29T15:48:24.826Z,17.88
2022-11-29T15:50:58.509Z,20.85
2022-11-29T15:53:34.481Z,20.50
2022-11-29T15:56:05.136Z,20.50
2022-11-29T15:58:35.458Z,19.13
2022-11-29T16:01:07.549Z,19.00
2022-11-29T16:03:39.686Z,22.60
2022-11-29T16:06:19.839Z,22.33
2022-11-29T16:08:51.131Z,19.90
2022-11-29T16:11:24.074Z,21.30
2022-11-29T16:14:18.958Z,21.35
2022-11-29T16:16:50.154Z,19.70
2022-11-29T16:19:37.066Z,20.35
2022-11-29T16:22:14.787Z,21.20
2022-11-29T16:24:52.778Z,19.65
2022-11-29T16:27:22.863Z,20.83
2022-11-29T16:29:55.349Z,19.20
2022-11-29T16:32:34.705Z,21.10
2022-11-29T16:35:13.356Z,20.92
2022-11-29T16:37:43.336Z,21.20
2022-11-29T16:40:23.550Z,20.63
2022-11-29T16:43:23.940Z,19.15
2022-11-29T16:46:30.357Z,19.60
2022-11-29T16:49:01.199Z,17.20
2022-11-29T16:51:37.796Z,19.23
2022-11-29T16:54:21.765Z,25.08
2022-11-29T16:56:52.676Z,67.75
2022-11-29T16:59:37.706Z,56.25
2022-11-29T17:02:11.260Z,29.83
2022-11-29T17:04:39.204Z,29.25
2022-11-29T17:07:08.945Z,24.40
2022-11-29T17:09:37.013Z,24.00
2022-11-29T17:12:06.894Z,22.02
2022-11-29T17:14:35.040Z,23.83
2022-11-29T17:17:02.984Z,23.60
2022-11-29T17:22:50.697Z,24.98
2022-11-29T17:28:19.864Z,23.65
2022-11-29T17:31:04.142Z,24.40
2022-11-29T17:33:35.633Z,39.75
2022-11-29T17:36:44.372Z,32.50
2022-11-29T17:39:30.881Z,31.63
2022-11-29T17:42:09.437Z,33.80
2022-11-29T17:44:54.243Z,26.65
2022-11-29T17:47:36.962Z,24.83
2022-11-29T17:50:17.245Z,24.23
2022-11-29T17:52:52.412Z,26.20
2022-11-29T17:55:41.817Z,21.23
2022-11-29T17:58:43.910Z,21.27
2022-11-29T18:08:00.868Z,21.83
2022-11-29T18:11:03.192Z,21.95
2022-11-29T18:13:51.934Z,28.52
2022-11-29T18:17:04.263Z,24.55
2022-11-29T18:19:52.907Z,21.38
2022-11-29T18:22:46.716Z,30.67
2022-11-29T18:25:38.576Z,23.00
2022-11-29T18:35:06.880Z,23.15
2022-11-29T18:38:13.496Z,21.25
2022-11-29T18:40:54.708Z,28.75
2022-11-29T18:43:46.970Z,22.77
2022-11-29T18:46:40.832Z,23.08
2022-11-29T18:49:30.334Z,25.92
2022-11-29T18:52:10.749Z,23.70
2022-11-29T18:54:58.981Z,24.55
2022-11-29T18:57:27.319Z,34.53
2022-11-29T19:00:16.878Z,48.42
2022-11-29T19:04:00.595Z,30.83
2022-11-29T19:06:40.158Z,30.42
2022-11-29T19:10:00.510Z,28.65
2022-11-29T19:12:43.256Z,33.10
2022-11-29T19:16:00.284Z,27.48
2022-11-29T19:22:36.544Z,25.23
2022-11-29T19:31:54.278Z,25.50
2022-11-29T19:34:58.488Z,25.50
2022-11-29T19:37:44.145Z,26.73
2022-11-29T19:40:32.066Z,29.45
2022-11-29T19:50:14.488Z,29.73
2022-11-29T19:53:01.565Z,24.42
2022-11-29T19:55:53.336Z,25.17
2022-11-29T19:58:21.652Z,24.90
2022-11-29T20:00:49.441Z,24.38
2022-11-29T20:03:37.902Z,89.55
2022-11-29T20:06:37.200Z,31.30
2022-11-29T20:12:38.213Z,22.98
2022-11-29T20:15:55.922Z,25.38
2022-11-29T20:18:51.946Z,26.88
2022-11-29T20:21:56.546Z,23.25
2022-11-29T20:25:02.578Z,28.00
2022-11-29T20:28:01.415Z,26.23
2022-11-29T20:35:02.047Z,30.35
2022-11-29T20:56:01.564Z,24.58
2022-11-29T21:02:29.659Z,26.30
2022-11-29T21:05:45.811Z,24.33
2022-11-29T21:09:28.569Z,22.70
2022-11-29T21:15:56.553Z,24.50
2022-11-29T21:27:23.775Z,22.98
2022-11-29T21:29:53.516Z,26.48
2022-11-29T21:32:29.028Z,24.48
2022-11-29T21:34:57.156Z,21.45
2022-11-29T21:37:36.611Z,23.90
2022-11-29T21:40:04.950Z,25.08
2022-11-29T21:42:37.571Z,23.60
2022-11-29T21:45:14.885Z,21.02
2022-11-29T21:47:44.094Z,21.45
2022-11-29T21:50:13.564Z,22.38
2022-11-29T21:52:41.769Z,23.77
2022-11-29T21:55:10.418Z,24.00
2022-11-29T21:57:41.256Z,23.05
2022-11-29T22:00:10.520Z,22.83
2022-11-29T22:02:38.498Z,22.15
2022-11-29T22:05:07.997Z,21.65
2022-11-29T22:07:35.984Z,20.10
2022-11-29T22:10:09.915Z,23.83
2022-11-29T22:12:51.238Z,23.00
2022-11-29T22:15:24.462Z,22.40
2022-11-29T22:17:52.949Z,21.88
2022-11-29T22:20:21.145Z,21.42
2022-11-29T22:22:49.346Z,22.10
2022-11-29T22:25:17.412Z,20.75
2022-11-29T22:27:46.759Z,21.13
2022-11-29T22:30:14.960Z,22.50
2022-11-29T22:32:43.421Z,22.05
2022-11-29T22:35:11.272Z,21.02
2022-11-29T22:37:39.175Z,20.10
2022-11-29T22:40:08.461Z,22.17
2022-11-29T22:42:36.448Z,21.50
2022-11-29T22:45:06.437Z,20.95
2022-11-29T22:47:34.431Z,20.90
2022-11-29T22:50:02.465Z,20.73
2022-11-29T22:52:30.670Z,21.90
2022-11-29T22:55:04.285Z,21.90
2022-11-29T22:57:33.261Z,19.15
2022-11-29T23:00:01.847Z,21.90
2022-11-29T23:02:31.293Z,22.00
2022-11-29T23:04:59.657Z,20.55
2022-11-29T23:07:28.199Z,20.05
2022-11-29T23:09:56.607Z,20.02
2022-11-29T23:12:25.258Z,21.63
2022-11-29T23:14:56.569Z,20.95
2022-11-29T23:17:25.041Z,20.48
2022-11-29T23:19:54.819Z,18.55
2022-11-29T23:22:23.347Z,19.33
2022-11-29T23:24:51.269Z,18.48
2022-11-29T23:27:19.567Z,19.45
2022-11-29T23:29:47.852Z,18.33
2022-11-29T23:32:15.745Z,16.05
2022-11-29T23:34:44.164Z,17.65
2022-11-29T23:37:14.519Z,17.15
2022-11-29T23:39:42.450Z,17.42
2022-11-29T23:42:10.796Z,17.20
2022-11-29T23:44:39.123Z,17.80
2022-11-29T23:47:07.151Z,20.42
2022-11-29T23:49:40.183Z,18.88
2022-11-29T23:52:09.489Z,19.48
2022-11-29T23:54:38.819Z,19.83
2022-11-29T23:57:07.180Z,19.15
2022-11-29T23:59:35.091Z,18.05
